createdAt,value
2019-05-21T00:00:52.810Z,76.93
2019-05-21T00:03:20.068Z,77.57
2019-05-21T00:05:47.345Z,77.97
2019-05-21T00:08:14.761Z,78.43
2019-05-21T00:10:42.067Z,80.08
2019-05-21T00:13:09.808Z,77.68
2019-05-21T00:15:37.240Z,77.99
2019-05-21T00:18:04.737Z,78.13
2019-05-21T00:20:32.165Z,80.87
2019-05-21T00:22:59.441Z,80.56
2019-05-21T00:25:26.587Z,80.77
2019-05-21T00:28:15.858Z,79.40
2019-05-21T00:31:38.813Z,80.58
2019-05-21T00:35:01.649Z,80.40
2019-05-21T00:38:24.645Z,79.76
2019-05-21T00:41:47.683Z,77.59
2019-05-21T00:44:15.151Z,79.59
2019-05-21T00:46:45.108Z,78.63
2019-05-21T00:49:12.687Z,78.09
2019-05-21T00:51:40.158Z,81.20
2019-05-21T00:54:07.431Z,77.57
2019-05-21T00:56:34.582Z,79.47
2019-05-21T00:59:01.862Z,79.58
2019-05-21T01:01:29.032Z,79.23
2019-05-21T01:03:56.282Z,79.06
2019-05-21T01:06:23.688Z,79.88
2019-05-21T01:08:50.841Z,80.92
2019-05-21T01:11:18.076Z,78.95
2019-05-21T01:13:45.353Z,79.01
2019-05-21T01:16:12.739Z,80.42
2019-05-21T01:18:40.054Z,78.71
2019-05-21T01:21:07.580Z,77.83
2019-05-21T01:23:35.259Z,77.74
2019-05-21T01:26:02.956Z,79.70
2019-05-21T01:28:30.220Z,80.91
2019-05-21T01:30:57.390Z,79.57
2019-05-21T01:33:29.571Z,78.45
2019-05-21T01:35:56.815Z,76.86
2019-05-21T01:38:23.963Z,78.13
2019-05-21T01:40:51.154Z,79.14
2019-05-21T01:43:18.408Z,80.13
2019-05-21T01:45:45.878Z,78.29
2019-05-21T01:48:13.020Z,79.72
2019-05-21T01:50:40.307Z,78.30
2019-05-21T01:53:07.703Z,79.60
2019-05-21T01:55:34.915Z,77.97
2019-05-21T01:58:02.307Z,78.70
2019-05-21T02:00:29.802Z,78.39
2019-05-21T02:02:56.950Z,80.22
2019-05-21T02:05:32.650Z,77.99
2019-05-21T02:07:53.572Z,78.79
2019-05-21T02:10:20.938Z,78.21
2019-05-21T02:12:48.199Z,77.57
2019-05-21T02:15:15.755Z,77.68
2019-05-21T02:17:43.132Z,77.47
2019-05-21T02:20:10.687Z,79.92
2019-05-21T02:22:37.953Z,79.28
2019-05-21T02:25:06.903Z,80.35
2019-05-21T02:27:34.171Z,79.29
2019-05-21T02:30:01.776Z,80.12
2019-05-21T02:32:29.162Z,80.41
2019-05-21T02:34:56.552Z,80.61
2019-05-21T02:37:23.726Z,81.53
2019-05-21T02:39:51.136Z,80.55
2019-05-21T02:42:18.314Z,78.67
2019-05-21T02:44:45.583Z,78.74
2019-05-21T02:47:13.039Z,81.03
2019-05-21T02:49:40.300Z,80.07
2019-05-21T02:52:07.641Z,80.19
2019-05-21T02:54:40.724Z,80.76
2019-05-21T02:57:04.174Z,78.80
2019-05-21T02:59:31.583Z,80.08
2019-05-21T03:02:04.892Z,81.29
2019-05-21T03:04:32.410Z,81.12
2019-05-21T03:07:18.151Z,80.23
2019-05-21T03:09:46.939Z,81.10
2019-05-21T03:12:14.915Z,80.58
2019-05-21T03:14:42.409Z,82.03
2019-05-21T03:17:09.771Z,79.80
2019-05-21T03:19:36.928Z,80.11
2019-05-21T03:22:04.387Z,80.70
2019-05-21T03:24:31.815Z,79.25
2019-05-21T03:26:59.301Z,79.01
2019-05-21T03:29:26.527Z,81.31
2019-05-21T03:31:53.682Z,80.19
2019-05-21T03:34:21.176Z,81.49
2019-05-21T03:36:48.414Z,79.08
2019-05-21T03:39:19.274Z,80.76
2019-05-21T03:41:45.074Z,79.33
2019-05-21T03:44:12.467Z,79.98
2019-05-21T03:46:40.264Z,79.76
2019-05-21T03:49:07.717Z,81.25
2019-05-21T03:51:35.398Z,80.08
2019-05-21T03:54:02.880Z,81.32
2019-05-21T03:56:33.078Z,80.28
2019-05-21T03:59:00.229Z,80.51
2019-05-21T04:01:32.333Z,81.05
2019-05-21T04:03:59.991Z,81.65
2019-05-21T04:06:28.915Z,82.55
2019-05-21T04:08:56.492Z,80.94
2019-05-21T04:11:23.688Z,81.57
2019-05-21T04:13:50.966Z,82.04
2019-05-21T04:16:37.895Z,80.38
2019-05-21T04:19:09.387Z,80.97
2019-05-21T04:21:36.563Z,80.87
2019-05-21T04:24:08.438Z,81.50
2019-05-21T04:26:33.536Z,81.79
2019-05-21T04:29:00.730Z,80.14
2019-05-21T04:31:28.093Z,81.07
2019-05-21T04:33:55.543Z,81.06
2019-05-21T04:36:23.020Z,79.41
2019-05-21T04:38:50.303Z,80.86
2019-05-21T04:41:17.461Z,80.45
2019-05-21T04:43:44.728Z,80.09
2019-05-21T04:46:12.151Z,79.93
2019-05-21T04:48:39.420Z,82.77
2019-05-21T04:51:06.804Z,81.61
2019-05-21T04:53:34.162Z,80.43
2019-05-21T04:56:01.324Z,81.11
2019-05-21T04:58:28.486Z,82.00
2019-05-21T05:00:56.038Z,81.79
2019-05-21T05:03:25.807Z,80.12
2019-05-21T05:05:56.295Z,81.05
2019-05-21T05:08:23.455Z,80.89
2019-05-21T05:10:50.768Z,80.85
2019-05-21T05:13:18.167Z,80.40
2019-05-21T05:15:45.659Z,80.34
2019-05-21T05:18:13.501Z,80.98
2019-05-21T05:20:41.190Z,82.30
2019-05-21T05:23:08.362Z,80.78
2019-05-21T05:25:35.741Z,80.21
2019-05-21T05:28:03.206Z,80.04
2019-05-21T05:30:30.520Z,80.50
2019-05-21T05:32:57.695Z,80.79
2019-05-21T05:35:25.100Z,81.14
2019-05-21T05:37:52.682Z,81.83
2019-05-21T05:40:20.270Z,81.11
2019-05-21T05:42:47.563Z,80.29
2019-05-21T05:45:15.641Z,80.26
2019-05-21T05:47:42.803Z,81.12
2019-05-21T05:50:13.588Z,80.84
2019-05-21T05:52:40.820Z,80.91
2019-05-21T05:55:08.399Z,80.80
2019-05-21T05:57:35.771Z,78.83
2019-05-21T06:00:06.127Z,79.14
2019-05-21T06:02:33.455Z,79.44
2019-05-21T06:05:00.814Z,81.25
2019-05-21T06:07:30.928Z,80.89
2019-05-21T06:09:58.253Z,81.32
2019-05-21T06:12:25.573Z,80.69
2019-05-21T06:14:52.906Z,82.04
2019-05-21T06:17:20.838Z,81.49
2019-05-21T06:19:48.468Z,80.45
2019-05-21T06:22:20.263Z,82.24
2019-05-21T06:24:47.654Z,81.58
2019-05-21T06:27:14.909Z,82.03
2019-05-21T06:29:42.464Z,80.54
2019-05-21T06:32:09.871Z,80.40
2019-05-21T06:34:38.757Z,80.15
2019-05-21T06:37:08.130Z,80.98
2019-05-21T06:39:35.918Z,80.49
2019-05-21T06:42:03.392Z,81.29
2019-05-21T06:44:31.124Z,81.51
2019-05-21T06:46:58.486Z,80.75
2019-05-21T06:49:25.884Z,81.22
2019-05-21T06:51:53.607Z,82.36
2019-05-21T06:54:21.044Z,81.91
2019-05-21T06:56:49.605Z,81.43
2019-05-21T06:59:21.074Z,81.69
2019-05-21T07:01:48.364Z,81.10
2019-05-21T07:04:15.750Z,81.18
2019-05-21T07:06:46.724Z,81.05
2019-05-21T07:09:15.575Z,80.27
2019-05-21T07:11:43.753Z,80.96
2019-05-21T07:14:11.200Z,79.90
2019-05-21T07:16:38.566Z,82.71
2019-05-21T07:19:05.923Z,81.60
2019-05-21T07:21:33.284Z,82.14
2019-05-21T07:24:03.223Z,81.43
2019-05-21T07:26:31.796Z,82.40
2019-05-21T07:29:00.162Z,82.33
2019-05-21T07:31:27.726Z,82.88
2019-05-21T07:33:55.848Z,83.44
2019-05-21T07:36:26.217Z,81.07
2019-05-21T07:38:55.522Z,81.66
2019-05-21T07:41:25.219Z,81.80
2019-05-21T07:43:53.732Z,81.83
2019-05-21T07:46:21.372Z,82.73
2019-05-21T07:48:49.835Z,82.90
2019-05-21T07:51:17.976Z,82.89
2019-05-21T07:53:48.339Z,82.41
2019-05-21T07:56:17.792Z,82.29
2019-05-21T07:58:46.597Z,81.72
2019-05-21T08:01:17.837Z,82.39
2019-05-21T08:03:47.863Z,82.01
2019-05-21T08:06:15.345Z,82.15
2019-05-21T08:08:42.798Z,82.12
2019-05-21T08:11:10.234Z,81.80
2019-05-21T08:13:43.087Z,81.90
2019-05-21T08:16:10.536Z,80.87
2019-05-21T08:18:38.241Z,81.85
2019-05-21T08:21:08.933Z,80.75
2019-05-21T08:23:38.614Z,81.72
2019-05-21T08:26:06.172Z,81.78
2019-05-21T08:28:33.573Z,80.84
2019-05-21T08:31:02.365Z,80.99
2019-05-21T08:33:29.861Z,79.95
2019-05-21T08:35:59.679Z,79.97
2019-05-21T08:38:29.937Z,80.73
2019-05-21T08:40:57.478Z,79.75
2019-05-21T08:43:32.003Z,80.66
2019-05-21T08:45:59.459Z,80.17
2019-05-21T08:48:26.768Z,80.30
2019-05-21T08:50:58.432Z,80.92
2019-05-21T08:53:25.994Z,80.59
2019-05-21T08:55:53.378Z,80.65
2019-05-21T08:58:20.842Z,80.56
2019-05-21T09:00:52.476Z,80.95
2019-05-21T09:03:19.852Z,80.32
2019-05-21T09:05:47.255Z,81.02
2019-05-21T09:08:14.542Z,80.94
2019-05-21T09:10:42.066Z,81.12
2019-05-21T09:13:09.535Z,80.58
2019-05-21T09:15:36.737Z,81.56
2019-05-21T09:18:04.217Z,81.53
2019-05-21T09:20:31.628Z,81.00
2019-05-21T09:22:59.016Z,81.06
2019-05-21T09:25:29.204Z,80.72
2019-05-21T09:27:56.702Z,80.68
2019-05-21T09:30:24.176Z,80.45
2019-05-21T09:32:51.571Z,80.79
2019-05-21T09:35:19.129Z,81.56
2019-05-21T09:37:46.395Z,81.65
2019-05-21T09:40:14.914Z,81.23
2019-05-21T09:42:45.273Z,80.31
2019-05-21T09:45:13.043Z,79.75
2019-05-21T09:47:40.427Z,79.94
2019-05-21T09:50:10.034Z,79.37
2019-05-21T09:52:37.521Z,79.68
2019-05-21T09:55:05.400Z,79.21
2019-05-21T09:57:38.832Z,79.99
2019-05-21T10:00:19.981Z,79.81
2019-05-21T10:02:47.337Z,78.96
2019-05-21T10:05:15.554Z,79.74
2019-05-21T10:07:42.851Z,79.28
2019-05-21T10:10:10.616Z,79.52
2019-05-21T10:12:37.903Z,78.34
2019-05-21T10:15:07.376Z,79.95
2019-05-21T10:17:34.820Z,79.65
2019-05-21T10:20:02.997Z,79.91
2019-05-21T10:22:30.349Z,79.70
2019-05-21T10:24:57.749Z,79.71
2019-05-21T10:27:25.138Z,79.72
2019-05-21T10:29:52.445Z,78.95
2019-05-21T10:32:19.821Z,80.08
2019-05-21T10:34:47.092Z,79.51
2019-05-21T10:37:14.468Z,79.49
2019-05-21T10:39:41.961Z,78.86
2019-05-21T10:42:09.231Z,78.53
2019-05-21T10:44:36.732Z,78.43
2019-05-21T10:47:05.922Z,78.79
2019-05-21T10:49:33.141Z,78.98
2019-05-21T10:52:00.322Z,79.46
2019-05-21T10:54:27.683Z,79.00
2019-05-21T10:56:54.954Z,79.96
2019-05-21T10:59:22.507Z,78.85
2019-05-21T11:02:02.964Z,78.69
2019-05-21T11:04:37.729Z,78.34
2019-05-21T11:07:05.462Z,78.81
2019-05-21T11:09:33.224Z,79.03
2019-05-21T11:12:00.963Z,78.26
2019-05-21T11:14:28.358Z,78.29
2019-05-21T11:16:55.849Z,77.50
2019-05-21T11:19:23.740Z,78.09
2019-05-21T11:21:51.017Z,78.63
2019-05-21T11:24:18.591Z,77.92
2019-05-21T11:26:47.159Z,77.72
2019-05-21T11:29:14.597Z,78.31
2019-05-21T11:31:55.909Z,77.34
2019-05-21T11:34:10.915Z,77.51
2019-05-21T11:36:38.240Z,77.45
2019-05-21T11:39:08.190Z,77.22
2019-05-21T11:41:35.945Z,77.35
2019-05-21T11:44:03.446Z,76.09
2019-05-21T11:46:30.901Z,76.37
2019-05-21T11:48:58.446Z,75.93
2019-05-21T11:51:25.804Z,75.70
2019-05-21T11:53:53.207Z,75.70
2019-05-21T11:56:20.620Z,76.44
2019-05-21T11:58:47.877Z,75.33
2019-05-21T12:01:15.386Z,75.51
2019-05-21T12:03:42.872Z,75.30
2019-05-21T12:06:10.385Z,74.19
2019-05-21T12:08:37.751Z,73.90
2019-05-21T12:11:05.247Z,73.91
2019-05-21T12:13:32.611Z,74.01
2019-05-21T12:15:59.895Z,72.93
2019-05-21T12:18:27.208Z,72.46
2019-05-21T12:20:54.581Z,71.08
2019-05-21T12:23:22.055Z,71.96
2019-05-21T12:25:49.355Z,71.78
2019-05-21T12:28:17.505Z,70.69
2019-05-21T12:30:44.938Z,71.24
2019-05-21T12:33:12.325Z,71.10
2019-05-21T12:35:39.729Z,71.29
2019-05-21T12:38:07.016Z,70.63
2019-05-21T12:40:34.329Z,70.91
2019-05-21T12:43:01.699Z,70.89
2019-05-21T12:45:28.856Z,70.73
2019-05-21T12:47:56.144Z,70.75
2019-05-21T12:50:24.357Z,71.40
2019-05-21T12:52:53.082Z,70.95
2019-05-21T12:55:20.476Z,69.35
2019-05-21T12:57:47.627Z,70.37
2019-05-21T13:00:16.154Z,69.92
2019-05-21T13:02:43.413Z,68.90
2019-05-21T13:05:11.822Z,69.33
2019-05-21T13:07:39.372Z,68.95
2019-05-21T13:10:07.557Z,68.64
2019-05-21T13:12:35.060Z,68.63
2019-05-21T13:15:02.386Z,68.87
2019-05-21T13:17:29.765Z,69.67
2019-05-21T13:19:57.331Z,67.39
2019-05-21T13:22:24.718Z,66.94
2019-05-21T13:24:52.130Z,65.27
2019-05-21T13:27:19.458Z,67.49
2019-05-21T13:29:46.880Z,66.31
2019-05-21T13:32:14.427Z,66.83
2019-05-21T13:34:41.594Z,64.93
2019-05-21T13:37:09.088Z,65.75
2019-05-21T13:39:48.941Z,64.34
2019-05-21T13:42:06.137Z,65.80
2019-05-21T13:44:33.611Z,63.00
2019-05-21T13:47:01.202Z,63.58
2019-05-21T13:49:28.586Z,63.19
2019-05-21T13:51:55.969Z,63.60
2019-05-21T13:54:23.251Z,63.13
2019-05-21T13:56:50.743Z,63.02
2019-05-21T13:59:18.372Z,61.29
2019-05-21T14:01:45.922Z,61.72
2019-05-21T14:04:14.740Z,62.33
2019-05-21T14:06:42.223Z,62.31
2019-05-21T14:09:10.014Z,62.17
2019-05-21T14:11:37.998Z,62.97
2019-05-21T14:14:05.570Z,62.52
2019-05-21T14:16:34.842Z,62.19
2019-05-21T14:19:04.208Z,62.41
2019-05-21T14:21:31.695Z,61.71
2019-05-21T14:23:59.602Z,63.67
2019-05-21T14:26:27.010Z,61.87
2019-05-21T14:28:54.325Z,62.63
2019-05-21T14:31:21.497Z,61.32
2019-05-21T14:33:48.682Z,62.68
2019-05-21T14:36:16.112Z,61.35
2019-05-21T14:38:43.608Z,62.38
2019-05-21T14:41:10.989Z,62.57
2019-05-21T14:43:38.514Z,63.50
2019-05-21T14:46:06.173Z,61.81
2019-05-21T14:48:33.597Z,61.23
2019-05-21T14:51:00.786Z,62.04
2019-05-21T14:53:28.005Z,61.88
2019-05-21T14:55:55.530Z,62.11
2019-05-21T14:58:22.935Z,62.73
2019-05-21T15:00:50.459Z,61.15
2019-05-21T15:03:25.444Z,61.23
2019-05-21T15:05:47.633Z,61.42
2019-05-21T15:08:14.905Z,60.92
2019-05-21T15:10:48.485Z,61.70
2019-05-21T15:13:11.913Z,63.07
2019-05-21T15:15:39.257Z,62.60
2019-05-21T15:18:06.642Z,61.59
2019-05-21T15:21:02.807Z,61.32
2019-05-21T15:23:30.328Z,62.05
2019-05-21T15:25:57.574Z,61.64
2019-05-21T15:28:24.857Z,61.76
2019-05-21T15:30:52.300Z,62.02
2019-05-21T15:33:19.592Z,61.78
2019-05-21T15:35:46.891Z,61.57
2019-05-21T15:38:14.296Z,61.54
2019-05-21T15:40:44.811Z,61.69
2019-05-21T15:43:12.477Z,61.74
2019-05-21T15:45:39.721Z,61.88
2019-05-21T15:48:10.033Z,60.44
2019-05-21T15:50:37.817Z,61.20
2019-05-21T15:53:05.311Z,61.56
2019-05-21T15:55:35.981Z,60.75
2019-05-21T15:58:05.509Z,62.20
2019-05-21T16:00:34.469Z,61.28
2019-05-21T16:03:02.377Z,61.01
2019-05-21T16:05:36.199Z,60.91
2019-05-21T16:08:06.162Z,60.87
2019-05-21T16:10:33.511Z,60.88
2019-05-21T16:13:01.131Z,61.32
2019-05-21T16:15:28.646Z,61.00
2019-05-21T16:17:56.605Z,61.57
2019-05-21T16:20:24.553Z,60.49
2019-05-21T16:22:54.605Z,59.84
2019-05-21T16:25:25.281Z,59.98
2019-05-21T16:27:56.786Z,60.45
2019-05-21T16:30:26.879Z,60.81
2019-05-21T16:32:54.504Z,60.90
2019-05-21T16:35:22.906Z,61.97
2019-05-21T16:37:51.127Z,60.32
2019-05-21T16:40:18.631Z,60.97
2019-05-21T16:42:46.137Z,60.30
2019-05-21T16:45:16.263Z,60.27
2019-05-21T16:47:46.417Z,60.73
2019-05-21T16:50:14.434Z,60.88
2019-05-21T16:52:42.530Z,60.96
2019-05-21T16:55:26.753Z,61.54
2019-05-21T16:57:56.310Z,60.78
2019-05-21T17:00:26.044Z,60.72
2019-05-21T17:02:53.948Z,60.14
2019-05-21T17:05:21.141Z,60.74
2019-05-21T17:07:48.604Z,61.13
2019-05-21T17:10:18.429Z,61.25
2019-05-21T17:12:46.225Z,60.97
2019-05-21T17:15:13.873Z,61.20
2019-05-21T17:17:41.153Z,61.45
2019-05-21T17:20:09.519Z,61.65
2019-05-21T17:22:37.030Z,61.76
2019-05-21T17:25:06.153Z,61.58
2019-05-21T17:27:33.567Z,61.48
2019-05-21T17:30:00.909Z,61.82
2019-05-21T17:32:28.284Z,62.39
2019-05-21T17:34:55.649Z,62.03
2019-05-21T17:37:23.255Z,61.98
2019-05-21T17:39:53.085Z,62.21
2019-05-21T17:42:25.624Z,61.82
2019-05-21T17:44:54.346Z,62.32
2019-05-21T17:47:26.354Z,62.01
2019-05-21T17:49:53.968Z,62.26
2019-05-21T17:52:22.507Z,62.35
2019-05-21T17:54:56.813Z,61.91
2019-05-21T17:57:27.679Z,62.35
2019-05-21T17:59:57.930Z,62.08
2019-05-21T18:02:30.431Z,62.50
2019-05-21T18:05:00.473Z,62.68
2019-05-21T18:07:28.579Z,62.33
2019-05-21T18:09:57.004Z,62.47
2019-05-21T18:12:32.426Z,62.45
2019-05-21T18:15:00.578Z,62.46
2019-05-21T18:17:30.244Z,62.74
2019-05-21T18:19:59.246Z,62.79
2019-05-21T18:22:31.685Z,63.04
2019-05-21T18:25:02.551Z,63.34
2019-05-21T18:27:30.121Z,63.28
2019-05-21T18:29:57.762Z,63.44
2019-05-21T18:32:25.775Z,63.54
2019-05-21T18:34:53.372Z,63.44
2019-05-21T18:37:21.795Z,63.60
2019-05-21T18:39:49.632Z,64.64
2019-05-21T18:42:22.072Z,64.40
2019-05-21T18:44:46.755Z,64.24
2019-05-21T18:47:14.865Z,64.57
2019-05-21T18:49:42.643Z,64.77
2019-05-21T18:52:10.588Z,64.41
2019-05-21T18:54:38.531Z,64.91
2019-05-21T18:57:08.979Z,64.92
2019-05-21T18:59:36.965Z,65.39
2019-05-21T19:02:09.995Z,65.49
2019-05-21T19:04:37.253Z,66.43
2019-05-21T19:07:04.983Z,66.43
2019-05-21T19:09:32.375Z,67.46
2019-05-21T19:12:00.111Z,67.87
2019-05-21T19:14:27.393Z,67.27
2019-05-21T19:16:55.478Z,68.45
2019-05-21T19:19:23.067Z,67.61
2019-05-21T19:21:50.787Z,67.12
2019-05-21T19:24:18.865Z,67.39
2019-05-21T19:26:46.418Z,68.75
2019-05-21T19:29:13.979Z,68.92
2019-05-21T19:31:44.301Z,68.40
2019-05-21T19:34:13.641Z,68.99
2019-05-21T19:36:42.497Z,69.99
2019-05-21T19:39:10.380Z,69.23
2019-05-21T19:41:38.270Z,69.34
2019-05-21T19:44:05.898Z,68.68
2019-05-21T19:46:33.368Z,69.40
2019-05-21T19:49:00.933Z,69.07
2019-05-21T19:51:28.422Z,69.22
2019-05-21T19:53:56.171Z,68.60
2019-05-21T19:56:23.883Z,68.90
2019-05-21T19:58:51.345Z,68.66
2019-05-21T20:01:19.380Z,68.49
2019-05-21T20:03:47.979Z,68.13
2019-05-21T20:06:16.131Z,68.35
2019-05-21T20:08:46.702Z,68.29
2019-05-21T20:11:15.525Z,68.25
2019-05-21T20:13:43.386Z,68.31
2019-05-21T20:16:11.263Z,68.68
2019-05-21T20:18:39.243Z,69.11
2019-05-21T20:21:08.137Z,67.84
2019-05-21T20:23:35.985Z,68.74
2019-05-21T20:26:05.388Z,69.25
2019-05-21T20:28:32.897Z,69.46
2019-05-21T20:31:00.285Z,69.47
2019-05-21T20:33:40.976Z,69.61
2019-05-21T20:36:10.142Z,68.74
2019-05-21T20:38:41.655Z,69.18
2019-05-21T20:41:10.373Z,69.05
2019-05-21T20:43:38.433Z,68.62
2019-05-21T20:46:07.600Z,68.60
2019-05-21T20:48:36.710Z,68.50
2019-05-21T20:51:06.857Z,69.42
2019-05-21T20:53:34.603Z,68.90
2019-05-21T20:56:07.171Z,70.01
2019-05-21T20:58:38.274Z,69.41
2019-05-21T21:01:10.443Z,69.18
2019-05-21T21:03:41.393Z,68.83
2019-05-21T21:06:13.940Z,69.27
2019-05-21T21:08:43.353Z,69.33
2019-05-21T21:11:14.834Z,69.04
2019-05-21T21:13:42.249Z,69.12
2019-05-21T21:16:10.571Z,69.17
2019-05-21T21:18:42.013Z,69.61
2019-05-21T21:21:09.690Z,68.66
2019-05-21T21:23:44.058Z,69.69
2019-05-21T21:26:21.855Z,69.75
2019-05-21T21:28:56.922Z,69.59
2019-05-21T21:31:28.545Z,69.24
2019-05-21T21:33:56.588Z,69.31
2019-05-21T21:36:24.223Z,69.95
2019-05-21T21:39:01.905Z,70.75
2019-05-21T21:41:29.979Z,69.78
2019-05-21T21:43:58.991Z,70.35
2019-05-21T21:46:34.033Z,70.09
2019-05-21T21:49:04.049Z,70.56
2019-05-21T21:51:31.767Z,70.69
2019-05-21T21:54:02.225Z,70.49
2019-05-21T21:56:29.563Z,69.53
2019-05-21T21:58:57.332Z,69.54
2019-05-21T22:01:51.467Z,69.01
2019-05-21T22:04:24.509Z,69.93
2019-05-21T22:06:53.868Z,70.31
2019-05-21T22:09:30.452Z,70.38
2019-05-21T22:11:59.222Z,70.31
2019-05-21T22:14:29.209Z,69.95
2019-05-21T22:16:57.962Z,70.58
2019-05-21T22:19:28.170Z,70.94
2019-05-21T22:21:58.626Z,70.05
2019-05-21T22:24:27.930Z,70.22
2019-05-21T22:26:58.967Z,69.60
2019-05-21T22:29:29.234Z,69.81
2019-05-21T22:32:01.505Z,69.97
2019-05-21T22:34:29.368Z,69.77
2019-05-21T22:36:57.217Z,69.78
2019-05-21T22:39:29.970Z,70.72
2019-05-21T22:42:11.001Z,70.61
2019-05-21T22:44:38.306Z,70.41
2019-05-21T22:47:06.799Z,70.33
2019-05-21T22:49:34.314Z,69.71
2019-05-21T22:52:01.882Z,70.18
2019-05-21T22:54:29.350Z,70.46
2019-05-21T22:56:56.617Z,70.53
2019-05-21T22:59:23.874Z,70.58
2019-05-21T23:01:53.973Z,70.34
2019-05-21T23:04:21.873Z,71.01
2019-05-21T23:06:50.046Z,69.93
2019-05-21T23:09:17.778Z,69.78
2019-05-21T23:11:45.292Z,70.25
2019-05-21T23:14:13.203Z,69.87
2019-05-21T23:16:40.570Z,70.37
2019-05-21T23:19:10.287Z,70.00
2019-05-21T23:21:51.164Z,69.63
2019-05-21T23:24:20.923Z,69.99
2019-05-21T23:26:49.027Z,70.50
2019-05-21T23:29:16.769Z,69.92
2019-05-21T23:31:45.326Z,69.45
2019-05-21T23:34:15.843Z,69.09
2019-05-21T23:36:45.252Z,69.51
2019-05-21T23:39:20.353Z,69.61
2019-05-21T23:41:48.840Z,69.34
2019-05-21T23:44:16.920Z,69.48
2019-05-21T23:46:44.604Z,69.67
2019-05-21T23:49:12.173Z,69.40
2019-05-21T23:51:39.859Z,69.16
2019-05-21T23:54:07.165Z,69.08
2019-05-21T23:56:35.249Z,69.54
2019-05-21T23:59:02.798Z,69.95
